sensor_id;sensor_type;location;lat;lon;timestamp;temperature;humidity
42227;DHT22;27892;52.378;13.122;2022-11-20T00:00:24;4.80;61.60
42227;DHT22;27892;52.378;13.122;2022-11-20T00:02:50;4.80;61.50
42227;DHT22;27892;52.378;13.122;2022-11-20T00:05:16;4.80;61.70
42227;DHT22;27892;52.378;13.122;2022-11-20T00:07:42;4.70;61.60
42227;DHT22;27892;52.378;13.122;2022-11-20T00:10:08;4.70;61.40
42227;DHT22;27892;52.378;13.122;2022-11-20T00:12:33;4.70;61.40
42227;DHT22;27892;52.378;13.122;2022-11-20T00:14:59;4.60;61.20
42227;DHT22;27892;52.378;13.122;2022-11-20T00:17:27;4.60;61.10
42227;DHT22;27892;52.378;13.122;2022-11-20T00:19:52;4.50;61.30
42227;DHT22;27892;52.378;13.122;2022-11-20T00:22:18;4.50;61.30
42227;DHT22;27892;52.378;13.122;2022-11-20T00:24:44;4.40;61.60
42227;DHT22;27892;52.378;13.122;2022-11-20T00:27:09;4.40;61.70
42227;DHT22;27892;52.378;13.122;2022-11-20T00:29:35;4.30;62.00
42227;DHT22;27892;52.378;13.122;2022-11-20T00:32:00;4.30;62.00
42227;DHT22;27892;52.378;13.122;2022-11-20T00:34:26;4.30;62.30
42227;DHT22;27892;52.378;13.122;2022-11-20T00:36:52;4.20;62.00
42227;DHT22;27892;52.378;13.122;2022-11-20T00:39:17;4.20;62.30
42227;DHT22;27892;52.378;13.122;2022-11-20T00:41:43;4.20;62.40
42227;DHT22;27892;52.378;13.122;2022-11-20T00:44:08;4.10;62.40
42227;DHT22;27892;52.378;13.122;2022-11-20T00:46:34;4.00;62.60
42227;DHT22;27892;52.378;13.122;2022-11-20T00:49:00;4.00;62.80
42227;DHT22;27892;52.378;13.122;2022-11-20T00:51:26;3.90;62.80
42227;DHT22;27892;52.378;13.122;2022-11-20T00:53:55;4.00;63.00
42227;DHT22;27892;52.378;13.122;2022-11-20T00:56:21;4.00;62.70
42227;DHT22;27892;52.378;13.122;2022-11-20T00:58:48;3.90;62.40
42227;DHT22;27892;52.378;13.122;2022-11-20T01:03:43;3.80;63.10
42227;DHT22;27892;52.378;13.122;2022-11-20T01:06:10;3.70;63.00
42227;DHT22;27892;52.378;13.122;2022-11-20T01:08:37;3.70;63.30
42227;DHT22;27892;52.378;13.122;2022-11-20T01:11:05;3.60;63.40
42227;DHT22;27892;52.378;13.122;2022-11-20T01:13:31;3.60;63.40
42227;DHT22;27892;52.378;13.122;2022-11-20T01:18:30;3.50;63.90
42227;DHT22;27892;52.378;13.122;2022-11-20T01:20:59;3.50;63.70
42227;DHT22;27892;52.378;13.122;2022-11-20T01:23:25;3.40;63.60
42227;DHT22;27892;52.378;13.122;2022-11-20T01:25:50;3.40;63.80
42227;DHT22;27892;52.378;13.122;2022-11-20T01:28:16;3.30;63.80
42227;DHT22;27892;52.378;13.122;2022-11-20T01:30:42;3.30;63.70
42227;DHT22;27892;52.378;13.122;2022-11-20T01:33:07;3.30;63.80
42227;DHT22;27892;52.378;13.122;2022-11-20T01:35:33;3.20;63.80
42227;DHT22;27892;52.378;13.122;2022-11-20T01:37:59;3.20;63.70
42227;DHT22;27892;52.378;13.122;2022-11-20T01:40:24;3.10;63.80
42227;DHT22;27892;52.378;13.122;2022-11-20T01:43:01;3.10;63.90
42227;DHT22;27892;52.378;13.122;2022-11-20T01:54:03;2.90;64.60
42227;DHT22;27892;52.378;13.122;2022-11-20T01:56:31;2.80;64.60
42227;DHT22;27892;52.378;13.122;2022-11-20T01:58:59;2.80;64.80
42227;DHT22;27892;52.378;13.122;2022-11-20T02:01:27;2.80;64.90
42227;DHT22;27892;52.378;13.122;2022-11-20T02:03:53;2.70;64.90
42227;DHT22;27892;52.378;13.122;2022-11-20T02:06:42;2.70;65.00
42227;DHT22;27892;52.378;13.122;2022-11-20T02:09:10;2.80;65.30
42227;DHT22;27892;52.378;13.122;2022-11-20T02:11:36;2.80;65.20
42227;DHT22;27892;52.378;13.122;2022-11-20T02:14:02;2.80;65.00
42227;DHT22;27892;52.378;13.122;2022-11-20T02:16:34;2.70;64.80
42227;DHT22;27892;52.378;13.122;2022-11-20T02:19:02;2.70;65.10
42227;DHT22;27892;52.378;13.122;2022-11-20T02:24:15;2.70;65.20
42227;DHT22;27892;52.378;13.122;2022-11-20T02:26:52;2.70;65.30
42227;DHT22;27892;52.378;13.122;2022-11-20T02:29:24;2.70;65.20
42227;DHT22;27892;52.378;13.122;2022-11-20T02:31:51;2.60;64.80
42227;DHT22;27892;52.378;13.122;2022-11-20T02:34:18;2.60;65.00
42227;DHT22;27892;52.378;13.122;2022-11-20T02:36:44;2.60;65.30
42227;DHT22;27892;52.378;13.122;2022-11-20T02:39:11;2.60;65.50
42227;DHT22;27892;52.378;13.122;2022-11-20T02:41:38;2.70;65.40
42227;DHT22;27892;52.378;13.122;2022-11-20T02:44:05;2.80;65.50
42227;DHT22;27892;52.378;13.122;2022-11-20T02:46:31;2.90;65.20
42227;DHT22;27892;52.378;13.122;2022-11-20T02:48:58;3.00;65.00
42227;DHT22;27892;52.378;13.122;2022-11-20T02:51:23;3.00;64.90
42227;DHT22;27892;52.378;13.122;2022-11-20T02:53:50;3.00;64.80
42227;DHT22;27892;52.378;13.122;2022-11-20T02:56:16;3.10;65.00
42227;DHT22;27892;52.378;13.122;2022-11-20T02:58:41;3.10;65.00
42227;DHT22;27892;52.378;13.122;2022-11-20T03:01:07;3.10;65.00
42227;DHT22;27892;52.378;13.122;2022-11-20T03:03:33;3.10;65.10
42227;DHT22;27892;52.378;13.122;2022-11-20T03:05:59;3.10;65.30
42227;DHT22;27892;52.378;13.122;2022-11-20T03:08:25;3.20;65.10
42227;DHT22;27892;52.378;13.122;2022-11-20T03:10:51;3.30;65.30
42227;DHT22;27892;52.378;13.122;2022-11-20T03:13:17;3.30;65.30
42227;DHT22;27892;52.378;13.122;2022-11-20T03:15:43;3.40;65.20
42227;DHT22;27892;52.378;13.122;2022-11-20T03:18:08;3.40;64.90
42227;DHT22;27892;52.378;13.122;2022-11-20T03:20:34;3.40;64.90
42227;DHT22;27892;52.378;13.122;2022-11-20T03:23:00;3.40;64.80
42227;DHT22;27892;52.378;13.122;2022-11-20T03:25:26;3.40;64.70
42227;DHT22;27892;52.378;13.122;2022-11-20T03:27:53;3.30;64.40
42227;DHT22;27892;52.378;13.122;2022-11-20T03:30:19;3.30;64.50
42227;DHT22;27892;52.378;13.122;2022-11-20T03:32:44;3.30;64.30
42227;DHT22;27892;52.378;13.122;2022-11-20T03:35:10;3.30;64.10
42227;DHT22;27892;52.378;13.122;2022-11-20T03:37:36;3.20;64.00
42227;DHT22;27892;52.378;13.122;2022-11-20T03:40:01;3.20;64.50
42227;DHT22;27892;52.378;13.122;2022-11-20T03:42:27;3.20;64.80
42227;DHT22;27892;52.378;13.122;2022-11-20T03:45:14;3.20;64.60
42227;DHT22;27892;52.378;13.122;2022-11-20T03:47:40;3.20;64.10
42227;DHT22;27892;52.378;13.122;2022-11-20T03:50:06;3.20;64.30
42227;DHT22;27892;52.378;13.122;2022-11-20T03:52:51;3.20;64.30
42227;DHT22;27892;52.378;13.122;2022-11-20T03:55:35;3.20;64.40
42227;DHT22;27892;52.378;13.122;2022-11-20T03:58:00;3.10;64.40
42227;DHT22;27892;52.378;13.122;2022-11-20T04:00:26;3.10;65.00
42227;DHT22;27892;52.378;13.122;2022-11-20T04:02:52;3.10;65.00
42227;DHT22;27892;52.378;13.122;2022-11-20T04:05:17;3.20;65.30
42227;DHT22;27892;52.378;13.122;2022-11-20T04:07:43;3.30;65.20
42227;DHT22;27892;52.378;13.122;2022-11-20T04:10:09;3.40;65.00
42227;DHT22;27892;52.378;13.122;2022-11-20T04:12:34;3.30;64.80
42227;DHT22;27892;52.378;13.122;2022-11-20T04:15:00;3.40;65.10
42227;DHT22;27892;52.378;13.122;2022-11-20T04:17:26;3.50;65.30
42227;DHT22;27892;52.378;13.122;2022-11-20T04:19:51;3.50;65.00
42227;DHT22;27892;52.378;13.122;2022-11-20T04:22:17;3.60;64.80
42227;DHT22;27892;52.378;13.122;2022-11-20T04:24:42;3.50;64.40
42227;DHT22;27892;52.378;13.122;2022-11-20T04:27:08;3.60;64.90
42227;DHT22;27892;52.378;13.122;2022-11-20T04:29:34;3.60;64.80
42227;DHT22;27892;52.378;13.122;2022-11-20T04:31:59;3.70;65.10
42227;DHT22;27892;52.378;13.122;2022-11-20T04:34:25;3.70;65.00
42227;DHT22;27892;52.378;13.122;2022-11-20T04:36:50;3.80;64.90
42227;DHT22;27892;52.378;13.122;2022-11-20T04:39:16;3.90;64.60
42227;DHT22;27892;52.378;13.122;2022-11-20T04:41:42;4.00;64.60
42227;DHT22;27892;52.378;13.122;2022-11-20T04:44:08;4.00;64.50
42227;DHT22;27892;52.378;13.122;2022-11-20T04:46:39;4.00;63.90
42227;DHT22;27892;52.378;13.122;2022-11-20T04:49:05;4.00;64.30
42227;DHT22;27892;52.378;13.122;2022-11-20T04:51:31;4.00;63.90
42227;DHT22;27892;52.378;13.122;2022-11-20T04:53:57;3.90;63.80
42227;DHT22;27892;52.378;13.122;2022-11-20T04:56:23;4.00;64.10
42227;DHT22;27892;52.378;13.122;2022-11-20T04:58:49;4.00;63.90
42227;DHT22;27892;52.378;13.122;2022-11-20T05:01:16;4.00;63.70
42227;DHT22;27892;52.378;13.122;2022-11-20T05:03:43;4.00;64.10
42227;DHT22;27892;52.378;13.122;2022-11-20T05:06:12;4.10;63.80
42227;DHT22;27892;52.378;13.122;2022-11-20T05:08:38;4.20;63.70
42227;DHT22;27892;52.378;13.122;2022-11-20T05:11:09;4.20;63.40
42227;DHT22;27892;52.378;13.122;2022-11-20T05:13:36;4.30;62.70
42227;DHT22;27892;52.378;13.122;2022-11-20T05:16:07;4.20;63.30
42227;DHT22;27892;52.378;13.122;2022-11-20T05:18:34;4.30;63.10
42227;DHT22;27892;52.378;13.122;2022-11-20T05:21:00;4.40;62.60
42227;DHT22;27892;52.378;13.122;2022-11-20T05:23:26;4.30;62.20
42227;DHT22;27892;52.378;13.122;2022-11-20T05:25:53;4.30;62.00
42227;DHT22;27892;52.378;13.122;2022-11-20T05:28:20;4.20;61.80
42227;DHT22;27892;52.378;13.122;2022-11-20T05:30:45;4.20;62.50
42227;DHT22;27892;52.378;13.122;2022-11-20T05:33:11;4.10;62.40
42227;DHT22;27892;52.378;13.122;2022-11-20T05:35:37;4.10;63.00
42227;DHT22;27892;52.378;13.122;2022-11-20T05:38:02;4.10;63.10
42227;DHT22;27892;52.378;13.122;2022-11-20T05:40:28;4.10;62.80
42227;DHT22;27892;52.378;13.122;2022-11-20T05:42:53;4.10;63.00
42227;DHT22;27892;52.378;13.122;2022-11-20T05:45:19;4.10;62.90
42227;DHT22;27892;52.378;13.122;2022-11-20T05:47:45;4.10;63.00
42227;DHT22;27892;52.378;13.122;2022-11-20T05:50:10;4.10;62.70
42227;DHT22;27892;52.378;13.122;2022-11-20T05:52:36;4.10;63.10
42227;DHT22;27892;52.378;13.122;2022-11-20T05:55:02;4.10;62.90
42227;DHT22;27892;52.378;13.122;2022-11-20T05:57:27;4.10;62.60
42227;DHT22;27892;52.378;13.122;2022-11-20T05:59:53;4.10;62.80
42227;DHT22;27892;52.378;13.122;2022-11-20T06:02:19;4.10;62.80
42227;DHT22;27892;52.378;13.122;2022-11-20T06:04:44;4.20;62.60
42227;DHT22;27892;52.378;13.122;2022-11-20T06:07:10;4.20;62.30
42227;DHT22;27892;52.378;13.122;2022-11-20T06:09:35;4.20;62.30
42227;DHT22;27892;52.378;13.122;2022-11-20T06:12:01;4.20;62.10
42227;DHT22;27892;52.378;13.122;2022-11-20T06:14:27;4.10;61.80
42227;DHT22;27892;52.378;13.122;2022-11-20T06:16:52;4.10;62.50
42227;DHT22;27892;52.378;13.122;2022-11-20T06:19:18;4.10;62.50
42227;DHT22;27892;52.378;13.122;2022-11-20T06:21:43;4.00;62.10
42227;DHT22;27892;52.378;13.122;2022-11-20T06:24:10;4.00;62.30
42227;DHT22;27892;52.378;13.122;2022-11-20T06:26:36;4.00;62.20
42227;DHT22;27892;52.378;13.122;2022-11-20T06:29:02;4.00;62.20
42227;DHT22;27892;52.378;13.122;2022-11-20T06:31:27;4.00;62.30
42227;DHT22;27892;52.378;13.122;2022-11-20T06:33:53;4.00;62.30
42227;DHT22;27892;52.378;13.122;2022-11-20T06:36:21;4.00;62.00
42227;DHT22;27892;52.378;13.122;2022-11-20T06:38:47;4.00;62.30
42227;DHT22;27892;52.378;13.122;2022-11-20T06:41:16;3.90;62.30
42227;DHT22;27892;52.378;13.122;2022-11-20T06:43:42;3.90;62.20
42227;DHT22;27892;52.378;13.122;2022-11-20T06:46:10;3.90;62.20
42227;DHT22;27892;52.378;13.122;2022-11-20T06:48:36;3.90;62.10
42227;DHT22;27892;52.378;13.122;2022-11-20T06:51:06;3.90;62.00
42227;DHT22;27892;52.378;13.122;2022-11-20T06:53:32;3.80;61.90
42227;DHT22;27892;52.378;13.122;2022-11-20T06:55:58;3.80;61.80
42227;DHT22;27892;52.378;13.122;2022-11-20T06:58:25;3.70;61.70
42227;DHT22;27892;52.378;13.122;2022-11-20T07:00:51;3.70;62.00
42227;DHT22;27892;52.378;13.122;2022-11-20T07:03:17;3.80;61.60
42227;DHT22;27892;52.378;13.122;2022-11-20T07:05:42;3.70;61.80
42227;DHT22;27892;52.378;13.122;2022-11-20T07:08:09;3.80;61.70
42227;DHT22;27892;52.378;13.122;2022-11-20T07:10:35;3.80;61.30
42227;DHT22;27892;52.378;13.122;2022-11-20T07:13:00;3.80;61.40
42227;DHT22;27892;52.378;13.122;2022-11-20T07:15:26;3.80;61.10
42227;DHT22;27892;52.378;13.122;2022-11-20T07:17:52;3.90;61.60
42227;DHT22;27892;52.378;13.122;2022-11-20T07:20:18;3.90;61.00
42227;DHT22;27892;52.378;13.122;2022-11-20T07:22:43;3.90;61.10
42227;DHT22;27892;52.378;13.122;2022-11-20T07:25:09;3.90;60.80
42227;DHT22;27892;52.378;13.122;2022-11-20T07:27:35;3.90;60.70
42227;DHT22;27892;52.378;13.122;2022-11-20T07:30:02;3.80;60.70
42227;DHT22;27892;52.378;13.122;2022-11-20T07:32:28;3.80;60.80
42227;DHT22;27892;52.378;13.122;2022-11-20T07:34:53;3.90;61.30
42227;DHT22;27892;52.378;13.122;2022-11-20T07:37:19;3.90;61.00
42227;DHT22;27892;52.378;13.122;2022-11-20T07:39:45;3.90;60.90
42227;DHT22;27892;52.378;13.122;2022-11-20T07:42:11;4.00;61.20
42227;DHT22;27892;52.378;13.122;2022-11-20T07:44:38;4.00;61.00
42227;DHT22;27892;52.378;13.122;2022-11-20T07:47:03;4.00;60.70
42227;DHT22;27892;52.378;13.122;2022-11-20T07:49:29;4.00;60.70
42227;DHT22;27892;52.378;13.122;2022-11-20T07:51:55;4.00;60.60
42227;DHT22;27892;52.378;13.122;2022-11-20T07:54:21;4.00;60.40
42227;DHT22;27892;52.378;13.122;2022-11-20T07:56:48;4.00;60.90
42227;DHT22;27892;52.378;13.122;2022-11-20T07:59:14;4.10;60.90
42227;DHT22;27892;52.378;13.122;2022-11-20T08:01:40;4.20;60.90
42227;DHT22;27892;52.378;13.122;2022-11-20T08:04:05;4.20;60.60
42227;DHT22;27892;52.378;13.122;2022-11-20T08:06:32;4.20;60.80
42227;DHT22;27892;52.378;13.122;2022-11-20T08:08:58;4.30;60.60
42227;DHT22;27892;52.378;13.122;2022-11-20T08:11:24;4.30;60.80
42227;DHT22;27892;52.378;13.122;2022-11-20T08:14:08;4.30;60.90
42227;DHT22;27892;52.378;13.122;2022-11-20T08:16:47;4.40;60.50
42227;DHT22;27892;52.378;13.122;2022-11-20T08:19:15;4.50;60.70
42227;DHT22;27892;52.378;13.122;2022-11-20T08:21:41;4.50;60.90
42227;DHT22;27892;52.378;13.122;2022-11-20T08:24:08;4.50;59.80
42227;DHT22;27892;52.378;13.122;2022-11-20T08:26:38;4.40;59.90
42227;DHT22;27892;52.378;13.122;2022-11-20T08:29:04;4.50;61.00
42227;DHT22;27892;52.378;13.122;2022-11-20T08:31:30;4.50;60.10
42227;DHT22;27892;52.378;13.122;2022-11-20T08:33:56;4.50;59.90
42227;DHT22;27892;52.378;13.122;2022-11-20T08:36:23;4.50;59.70
42227;DHT22;27892;52.378;13.122;2022-11-20T08:38:51;4.50;60.00
42227;DHT22;27892;52.378;13.122;2022-11-20T08:41:17;4.50;60.30
42227;DHT22;27892;52.378;13.122;2022-11-20T08:43:49;4.60;60.60
42227;DHT22;27892;52.378;13.122;2022-11-20T08:46:19;4.70;60.90
42227;DHT22;27892;52.378;13.122;2022-11-20T08:48:44;4.70;59.80
42227;DHT22;27892;52.378;13.122;2022-11-20T08:51:11;4.70;60.10
42227;DHT22;27892;52.378;13.122;2022-11-20T08:53:39;4.80;60.30
42227;DHT22;27892;52.378;13.122;2022-11-20T08:56:05;4.80;60.50
42227;DHT22;27892;52.378;13.122;2022-11-20T08:58:31;4.90;60.70
42227;DHT22;27892;52.378;13.122;2022-11-20T09:00:57;5.00;60.60
42227;DHT22;27892;52.378;13.122;2022-11-20T09:03:23;5.10;60.30
42227;DHT22;27892;52.378;13.122;2022-11-20T09:05:48;5.10;59.60
42227;DHT22;27892;52.378;13.122;2022-11-20T09:08:14;5.10;59.60
42227;DHT22;27892;52.378;13.122;2022-11-20T09:10:40;5.20;59.50
42227;DHT22;27892;52.378;13.122;2022-11-20T09:13:06;5.20;59.10
42227;DHT22;27892;52.378;13.122;2022-11-20T09:15:32;5.20;59.30
42227;DHT22;27892;52.378;13.122;2022-11-20T09:18:01;5.30;59.00
42227;DHT22;27892;52.378;13.122;2022-11-20T09:20:28;5.30;58.80
42227;DHT22;27892;52.378;13.122;2022-11-20T09:22:54;5.20;58.30
42227;DHT22;27892;52.378;13.122;2022-11-20T09:25:20;5.20;58.50
42227;DHT22;27892;52.378;13.122;2022-11-20T09:27:46;5.10;57.90
42227;DHT22;27892;52.378;13.122;2022-11-20T09:30:15;5.10;58.40
42227;DHT22;27892;52.378;13.122;2022-11-20T09:32:44;5.10;58.30
42227;DHT22;27892;52.378;13.122;2022-11-20T09:35:10;5.10;58.30
42227;DHT22;27892;52.378;13.122;2022-11-20T09:37:36;5.10;58.00
42227;DHT22;27892;52.378;13.122;2022-11-20T09:40:02;5.10;58.10
42227;DHT22;27892;52.378;13.122;2022-11-20T09:45:17;5.10;58.00
42227;DHT22;27892;52.378;13.122;2022-11-20T09:53:12;5.10;58.00
42227;DHT22;27892;52.378;13.122;2022-11-20T09:55:39;5.10;57.90
42227;DHT22;27892;52.378;13.122;2022-11-20T09:58:07;5.00;57.90
42227;DHT22;27892;52.378;13.122;2022-11-20T10:00:35;5.00;57.70
42227;DHT22;27892;52.378;13.122;2022-11-20T10:03:16;5.00;57.60
42227;DHT22;27892;52.378;13.122;2022-11-20T10:05:56;5.00;58.00
42227;DHT22;27892;52.378;13.122;2022-11-20T10:08:41;5.00;58.40
42227;DHT22;27892;52.378;13.122;2022-11-20T10:11:26;5.10;58.50
42227;DHT22;27892;52.378;13.122;2022-11-20T10:14:14;5.20;58.40
42227;DHT22;27892;52.378;13.122;2022-11-20T10:17:05;5.30;58.60
42227;DHT22;27892;52.378;13.122;2022-11-20T10:19:59;5.40;58.60
42227;DHT22;27892;52.378;13.122;2022-11-20T10:30:18;5.70;58.10
42227;DHT22;27892;52.378;13.122;2022-11-20T10:32:59;5.70;57.30
42227;DHT22;27892;52.378;13.122;2022-11-20T10:35:35;5.60;57.00
42227;DHT22;27892;52.378;13.122;2022-11-20T10:38:12;5.60;57.50
42227;DHT22;27892;52.378;13.122;2022-11-20T10:40:46;5.50;57.00
42227;DHT22;27892;52.378;13.122;2022-11-20T10:43:29;5.50;57.20
42227;DHT22;27892;52.378;13.122;2022-11-20T10:46:08;5.60;57.50
42227;DHT22;27892;52.378;13.122;2022-11-20T10:48:36;5.60;56.80
42227;DHT22;27892;52.378;13.122;2022-11-20T10:53:55;5.60;56.70
42227;DHT22;27892;52.378;13.122;2022-11-20T11:01:52;5.80;56.30
42227;DHT22;27892;52.378;13.122;2022-11-20T11:04:33;5.90;56.10
42227;DHT22;27892;52.378;13.122;2022-11-20T11:07:10;6.00;55.40
42227;DHT22;27892;52.378;13.122;2022-11-20T11:09:41;6.10;56.20
42227;DHT22;27892;52.378;13.122;2022-11-20T11:12:09;6.20;55.50
42227;DHT22;27892;52.378;13.122;2022-11-20T11:14:45;6.40;55.90
42227;DHT22;27892;52.378;13.122;2022-11-20T11:17:33;6.80;56.30
42227;DHT22;27892;52.378;13.122;2022-11-20T11:22:30;7.50;54.20
42227;DHT22;27892;52.378;13.122;2022-11-20T11:24:56;7.80;54.90
42227;DHT22;27892;52.378;13.122;2022-11-20T11:27:21;8.00;54.10
42227;DHT22;27892;52.378;13.122;2022-11-20T11:29:47;8.30;53.50
42227;DHT22;27892;52.378;13.122;2022-11-20T11:32:18;8.30;52.50
42227;DHT22;27892;52.378;13.122;2022-11-20T11:34:44;8.20;52.40
42227;DHT22;27892;52.378;13.122;2022-11-20T11:37:20;8.10;52.10
42227;DHT22;27892;52.378;13.122;2022-11-20T11:39:47;8.10;52.50
42227;DHT22;27892;52.378;13.122;2022-11-20T11:42:17;7.90;52.40
42227;DHT22;27892;52.378;13.122;2022-11-20T11:44:45;7.70;52.70
42227;DHT22;27892;52.378;13.122;2022-11-20T11:47:43;7.60;53.00
42227;DHT22;27892;52.378;13.122;2022-11-20T11:53:13;7.20;52.10
42227;DHT22;27892;52.378;13.122;2022-11-20T11:56:19;7.10;52.50
42227;DHT22;27892;52.378;13.122;2022-11-20T11:58:45;6.90;53.50
42227;DHT22;27892;52.378;13.122;2022-11-20T12:07:08;7.00;53.80
42227;DHT22;27892;52.378;13.122;2022-11-20T12:09:41;6.90;53.10
42227;DHT22;27892;52.378;13.122;2022-11-20T12:12:36;6.80;53.20
42227;DHT22;27892;52.378;13.122;2022-11-20T12:15:01;6.70;54.40
42227;DHT22;27892;52.378;13.122;2022-11-20T12:17:27;6.70;54.80
42227;DHT22;27892;52.378;13.122;2022-11-20T12:19:56;6.60;55.30
42227;DHT22;27892;52.378;13.122;2022-11-20T12:22:48;6.60;55.90
42227;DHT22;27892;52.378;13.122;2022-11-20T12:25:28;6.60;56.50
42227;DHT22;27892;52.378;13.122;2022-11-20T12:28:26;6.50;57.00
42227;DHT22;27892;52.378;13.122;2022-11-20T12:34:19;6.50;58.50
42227;DHT22;27892;52.378;13.122;2022-11-20T12:37:17;6.60;58.50
42227;DHT22;27892;52.378;13.122;2022-11-20T12:39:49;6.60;58.50
42227;DHT22;27892;52.378;13.122;2022-11-20T12:42:34;6.60;58.50
42227;DHT22;27892;52.378;13.122;2022-11-20T12:45:38;6.70;58.70
42227;DHT22;27892;52.378;13.122;2022-11-20T12:48:23;6.70;58.80
42227;DHT22;27892;52.378;13.122;2022-11-20T12:56:53;6.60;58.80
42227;DHT22;27892;52.378;13.122;2022-11-20T13:00:25;6.50;58.70
42227;DHT22;27892;52.378;13.122;2022-11-20T13:02:37;6.50;59.20
42227;DHT22;27892;52.378;13.122;2022-11-20T13:08:00;6.40;58.70
42227;DHT22;27892;52.378;13.122;2022-11-20T13:16:08;6.50;59.00
42227;DHT22;27892;52.378;13.122;2022-11-20T13:18:39;6.50;58.70
42227;DHT22;27892;52.378;13.122;2022-11-20T13:21:17;6.60;58.80
42227;DHT22;27892;52.378;13.122;2022-11-20T13:23:42;6.60;59.50
42227;DHT22;27892;52.378;13.122;2022-11-20T13:26:22;6.60;58.80
42227;DHT22;27892;52.378;13.122;2022-11-20T13:29:09;6.60;58.20
42227;DHT22;27892;52.378;13.122;2022-11-20T13:31:37;6.50;58.40
42227;DHT22;27892;52.378;13.122;2022-11-20T13:34:06;6.50;58.80
42227;DHT22;27892;52.378;13.122;2022-11-20T13:36:32;6.60;59.60
42227;DHT22;27892;52.378;13.122;2022-11-20T13:39:00;6.70;59.20
42227;DHT22;27892;52.378;13.122;2022-11-20T13:41:31;6.70;59.10
42227;DHT22;27892;52.378;13.122;2022-11-20T13:44:39;6.70;58.80
42227;DHT22;27892;52.378;13.122;2022-11-20T13:47:24;6.70;58.50
42227;DHT22;27892;52.378;13.122;2022-11-20T13:49:52;6.50;58.00
42227;DHT22;27892;52.378;13.122;2022-11-20T14:01:00;6.30;59.30
42227;DHT22;27892;52.378;13.122;2022-11-20T14:03:29;6.40;59.50
42227;DHT22;27892;52.378;13.122;2022-11-20T14:06:05;6.50;59.20
42227;DHT22;27892;52.378;13.122;2022-11-20T14:08:39;6.50;58.50
42227;DHT22;27892;52.378;13.122;2022-11-20T14:11:16;6.40;58.60
42227;DHT22;27892;52.378;13.122;2022-11-20T14:14:13;6.40;58.90
42227;DHT22;27892;52.378;13.122;2022-11-20T14:16:40;6.40;59.20
42227;DHT22;27892;52.378;13.122;2022-11-20T14:21:47;6.30;59.10
42227;DHT22;27892;52.378;13.122;2022-11-20T14:24:18;6.20;58.80
42227;DHT22;27892;52.378;13.122;2022-11-20T14:26:45;6.10;59.00
42227;DHT22;27892;52.378;13.122;2022-11-20T14:29:17;6.10;59.10
42227;DHT22;27892;52.378;13.122;2022-11-20T14:31:44;6.20;59.30
42227;DHT22;27892;52.378;13.122;2022-11-20T14:34:22;6.20;59.20
42227;DHT22;27892;52.378;13.122;2022-11-20T14:36:53;6.10;59.10
42227;DHT22;27892;52.378;13.122;2022-11-20T14:39:22;6.10;59.30
42227;DHT22;27892;52.378;13.122;2022-11-20T14:41:52;5.90;58.70
42227;DHT22;27892;52.378;13.122;2022-11-20T14:44:21;5.90;59.00
42227;DHT22;27892;52.378;13.122;2022-11-20T14:46:50;5.80;59.30
42227;DHT22;27892;52.378;13.122;2022-11-20T14:49:16;5.70;59.40
42227;DHT22;27892;52.378;13.122;2022-11-20T14:51:42;5.70;59.50
42227;DHT22;27892;52.378;13.122;2022-11-20T14:54:18;5.70;59.60
42227;DHT22;27892;52.378;13.122;2022-11-20T14:57:01;5.60;59.90
42227;DHT22;27892;52.378;13.122;2022-11-20T14:59:33;5.70;60.40
42227;DHT22;27892;52.378;13.122;2022-11-20T15:02:05;5.70;60.40
42227;DHT22;27892;52.378;13.122;2022-11-20T15:04:31;5.70;60.20
42227;DHT22;27892;52.378;13.122;2022-11-20T15:06:59;5.70;59.90
42227;DHT22;27892;52.378;13.122;2022-11-20T15:09:24;5.70;59.90
42227;DHT22;27892;52.378;13.122;2022-11-20T15:11:59;5.70;60.10
42227;DHT22;27892;52.378;13.122;2022-11-20T15:14:27;5.70;60.40
42227;DHT22;27892;52.378;13.122;2022-11-20T15:16:53;5.80;60.50
42227;DHT22;27892;52.378;13.122;2022-11-20T15:19:22;5.80;60.30
42227;DHT22;27892;52.378;13.122;2022-11-20T15:21:48;5.80;60.30
42227;DHT22;27892;52.378;13.122;2022-11-20T15:24:14;5.80;60.30
42227;DHT22;27892;52.378;13.122;2022-11-20T15:26:40;5.80;60.30
42227;DHT22;27892;52.378;13.122;2022-11-20T15:29:09;5.80;60.00
42227;DHT22;27892;52.378;13.122;2022-11-20T15:31:36;5.80;59.70
42227;DHT22;27892;52.378;13.122;2022-11-20T15:34:02;5.80;60.00
42227;DHT22;27892;52.378;13.122;2022-11-20T15:36:28;5.80;60.20
42227;DHT22;27892;52.378;13.122;2022-11-20T15:38:54;5.80;60.40
42227;DHT22;27892;52.378;13.122;2022-11-20T15:41:19;5.70;60.20
42227;DHT22;27892;52.378;13.122;2022-11-20T15:43:45;5.80;60.60
42227;DHT22;27892;52.378;13.122;2022-11-20T15:46:15;5.80;60.60
42227;DHT22;27892;52.378;13.122;2022-11-20T15:48:45;5.80;60.60
42227;DHT22;27892;52.378;13.122;2022-11-20T15:51:35;5.90;60.20
42227;DHT22;27892;52.378;13.122;2022-11-20T15:54:10;5.90;60.40
42227;DHT22;27892;52.378;13.122;2022-11-20T15:56:36;5.90;60.30
42227;DHT22;27892;52.378;13.122;2022-11-20T15:59:02;5.90;60.20
42227;DHT22;27892;52.378;13.122;2022-11-20T16:01:28;5.80;60.10
42227;DHT22;27892;52.378;13.122;2022-11-20T16:03:54;5.80;59.90
42227;DHT22;27892;52.378;13.122;2022-11-20T16:06:19;5.80;59.70
42227;DHT22;27892;52.378;13.122;2022-11-20T16:08:45;5.80;59.80
42227;DHT22;27892;52.378;13.122;2022-11-20T16:11:14;5.80;59.50
42227;DHT22;27892;52.378;13.122;2022-11-20T16:13:40;5.80;59.50
42227;DHT22;27892;52.378;13.122;2022-11-20T16:16:35;5.80;59.50
42227;DHT22;27892;52.378;13.122;2022-11-20T16:19:02;5.80;59.70
42227;DHT22;27892;52.378;13.122;2022-11-20T16:21:28;5.90;59.40
42227;DHT22;27892;52.378;13.122;2022-11-20T16:23:58;5.80;58.80
42227;DHT22;27892;52.378;13.122;2022-11-20T16:26:24;5.80;58.40
42227;DHT22;27892;52.378;13.122;2022-11-20T16:28:49;5.80;58.30
42227;DHT22;27892;52.378;13.122;2022-11-20T16:31:17;5.70;58.30
42227;DHT22;27892;52.378;13.122;2022-11-20T16:33:48;5.60;58.10
42227;DHT22;27892;52.378;13.122;2022-11-20T16:36:14;5.50;58.30
42227;DHT22;27892;52.378;13.122;2022-11-20T16:38:41;5.30;58.90
42227;DHT22;27892;52.378;13.122;2022-11-20T16:41:08;5.10;58.40
42227;DHT22;27892;52.378;13.122;2022-11-20T16:43:50;4.90;58.70
42227;DHT22;27892;52.378;13.122;2022-11-20T16:46:20;4.70;59.40
42227;DHT22;27892;52.378;13.122;2022-11-20T16:51:23;4.50;60.10
42227;DHT22;27892;52.378;13.122;2022-11-20T16:53:49;4.40;60.20
42227;DHT22;27892;52.378;13.122;2022-11-20T16:56:17;4.40;60.50
42227;DHT22;27892;52.378;13.122;2022-11-20T16:58:44;4.30;60.40
42227;DHT22;27892;52.378;13.122;2022-11-20T17:01:13;4.20;60.40
42227;DHT22;27892;52.378;13.122;2022-11-20T17:03:40;4.10;60.40
42227;DHT22;27892;52.378;13.122;2022-11-20T17:06:14;4.00;60.70